Portada
METAR-TAF:

METAR-TAF

Aeropuertos :

Curazao, Antillas Neerlandesas

Aeropuerto Internacional Hato

latitud: 12-12N, longitud: 068-58W, altitud: 9 m

Observación

El informe se hizo hace 38 minutos, a las 23:00 UTC
Viento 18 kt del este
Temperatura 29°C
Humedad 74%
Presión 1008 hPa
Visibilidad 10 km o más
Escasas nubes a una altura de 2000 ft

METAR: TNCC 202300Z 10018KT 9999 FEW020 29/24 Q1008 NOSIG

Hora: 19:38 (23:38 UTC)

Pronóstico

El informe se hizo hace 7 horas y 38 minutos, a las 16:00 UTC
Pronóstico válido del 20 a las 18 UTC al 21 a las 18 UTC
Viento 20 kt del este con ráfagas de 30 kt
Visibilidad 10 km o más
Nubes dispersas a una altura de 2000 ft
Temporalmente
del 20 a las 08 UTC al 20 a las 16 UTC
Visibilidad: 7000 m
Cielo nuboso a una altura de 1500 ft
chaparrones de lluvia

TAF: TNCC 201600Z 2018/2118 10020G30KT 9999 SCT020 TEMPO 2008/2016 7000 SHRA BKN015

Observaciones y pronósticos meteorológicos de más de 4000 aeropuertos (mensajes METAR y TAF).

Los puntos amarillos y rojos representan las estaciones disponibles.

Ponga el ratón en el punto deseado para ver el nombre de la estación.

Haga clic para ver las observaciones y los pronósticos meteorológicos.

Para cambiar el mapa : haga clic en los botones verdes con una cruz de color negro para hacer un zoom, en el botón verde con un guión para alejar o en las flechas verdes para mapas adyacentes.


METAR-TAF: